createdAt,value
2019-02-14T16:17:51.375Z,42.60
2019-02-14T16:20:11.800Z,43.50
2019-02-14T16:22:32.135Z,44.80
2019-02-14T16:24:52.451Z,44.40
2019-02-14T16:27:12.833Z,45.20
2019-02-14T16:29:33.120Z,46.10
2019-02-14T16:31:53.506Z,46.40
2019-02-14T16:34:13.950Z,47.00
2019-02-14T16:36:34.267Z,47.40
2019-02-14T16:38:56.315Z,48.10
2019-02-14T16:41:16.663Z,48.70
2019-02-14T16:43:37.371Z,49.20
2019-02-14T16:45:57.722Z,50.00
2019-02-14T16:48:17.993Z,50.50
2019-02-14T16:50:38.302Z,51.30
2019-02-14T16:52:58.751Z,52.40
2019-02-14T16:55:19.138Z,52.30
2019-02-14T16:57:39.484Z,52.80
2019-02-14T17:00:00.144Z,53.40
2019-02-14T17:02:20.673Z,53.20
2019-02-14T17:04:41.282Z,53.60
2019-02-14T17:07:01.697Z,54.00
2019-02-14T17:09:22.234Z,55.00
2019-02-14T17:11:42.500Z,55.40
2019-02-14T17:14:03.889Z,55.70
2019-02-14T17:16:24.211Z,55.80
2019-02-14T17:18:44.649Z,56.40
2019-02-14T17:21:05.296Z,56.50
2019-02-14T17:23:25.839Z,55.50
2019-02-14T17:25:46.235Z,57.00
2019-02-14T17:28:06.587Z,57.60
2019-02-14T17:30:26.883Z,58.10
2019-02-14T17:32:47.243Z,58.60
2019-02-14T17:35:07.857Z,59.00
2019-02-14T17:37:28.208Z,59.00
2019-02-14T17:39:48.492Z,59.00
2019-02-14T17:42:08.798Z,59.20
2019-02-14T17:44:29.111Z,59.40
2019-02-14T17:46:49.411Z,59.50
2019-02-14T17:49:09.718Z,59.90
2019-02-14T17:51:30.043Z,61.80
2019-02-14T17:53:50.396Z,62.40
2019-02-14T17:56:10.714Z,62.40
2019-02-14T17:58:31.032Z,62.30
2019-02-14T18:00:51.315Z,62.50
2019-02-14T18:03:11.638Z,62.60
2019-02-14T18:05:32.216Z,62.10
2019-02-14T18:07:52.551Z,62.00
2019-02-14T18:10:13.565Z,62.60
2019-02-14T18:12:33.975Z,63.30
2019-02-14T18:14:54.359Z,63.70
2019-02-14T18:17:14.684Z,64.20
2019-02-14T18:19:34.965Z,64.50
2019-02-14T18:21:55.215Z,63.90
2019-02-14T18:24:15.463Z,64.30
2019-02-14T18:26:35.835Z,64.20
2019-02-14T18:28:56.097Z,64.10
2019-02-14T18:31:16.366Z,64.00
2019-02-14T18:33:36.750Z,65.10
2019-02-14T18:35:57.073Z,66.70
2019-02-14T18:38:17.386Z,66.70
2019-02-14T18:40:40.308Z,66.40
2019-02-14T18:43:00.601Z,66.20
2019-02-14T18:45:20.993Z,65.90
2019-02-14T18:47:41.333Z,66.30
2019-02-14T18:50:02.672Z,66.60
2019-02-14T18:52:23.100Z,67.00
2019-02-14T18:54:43.847Z,66.80
2019-02-14T18:57:04.131Z,67.30
2019-02-14T18:59:24.383Z,67.30
2019-02-14T19:01:44.720Z,68.10
2019-02-14T19:04:05.487Z,69.60
2019-02-14T19:06:25.866Z,70.10
2019-02-14T19:08:46.186Z,69.50
2019-02-14T19:11:14.900Z,69.00
2019-02-14T19:13:28.524Z,68.80
2019-02-14T19:15:48.841Z,69.20
2019-02-14T19:18:09.179Z,69.40
2019-02-14T19:20:31.111Z,69.50
2019-02-14T19:22:51.463Z,70.90
2019-02-14T19:25:12.007Z,71.20
2019-02-14T19:27:32.535Z,70.50
2019-02-14T19:29:53.411Z,70.30
2019-02-14T19:32:13.792Z,69.90
2019-02-14T19:34:35.085Z,70.20
2019-02-14T19:36:55.395Z,70.50
2019-02-14T19:39:16.767Z,70.70
2019-02-14T19:41:37.101Z,73.10
2019-02-14T19:43:57.483Z,74.20
2019-02-14T19:46:20.274Z,73.90
2019-02-14T19:48:40.360Z,72.50
2019-02-14T19:51:00.708Z,72.80
2019-02-14T19:53:21.093Z,72.90
2019-02-14T19:55:41.368Z,72.60
2019-02-14T19:58:01.751Z,72.20
2019-02-14T20:00:22.116Z,72.60
2019-02-14T20:02:42.459Z,72.40
2019-02-14T20:05:03.169Z,72.80
2019-02-14T20:07:24.581Z,72.60
2019-02-14T20:09:44.839Z,73.10
2019-02-14T20:12:05.562Z,73.30
2019-02-14T20:14:25.916Z,73.20
2019-02-14T20:16:46.205Z,74.00
2019-02-14T20:19:06.592Z,72.90
2019-02-14T20:21:26.884Z,73.30
2019-02-14T20:23:47.224Z,73.40
2019-02-14T20:26:07.856Z,73.80
2019-02-14T20:28:28.225Z,74.00
2019-02-14T20:30:48.564Z,74.00
2019-02-14T20:33:08.899Z,74.50
2019-02-14T20:35:29.281Z,74.70
2019-02-14T20:37:49.627Z,74.80
2019-02-14T20:40:10.477Z,75.90
2019-02-14T20:42:30.924Z,77.20
2019-02-14T20:44:51.261Z,77.30
2019-02-14T20:47:11.588Z,78.60
2019-02-14T20:49:31.921Z,78.30
2019-02-14T20:51:52.424Z,77.50
2019-02-14T20:54:12.745Z,77.30
2019-02-14T20:56:33.045Z,76.70
2019-02-14T20:58:54.534Z,76.50
2019-02-14T21:01:15.685Z,77.80
2019-02-14T21:03:36.141Z,78.20
2019-02-14T21:05:57.454Z,78.20
2019-02-14T21:08:17.732Z,77.80
2019-02-14T21:10:38.062Z,77.50
2019-02-14T21:12:58.397Z,77.60
2019-02-14T21:15:18.689Z,78.30
2019-02-14T21:17:38.969Z,78.00
2019-02-14T21:19:59.288Z,78.40
2019-02-14T21:22:19.719Z,77.90
2019-02-14T21:24:40.065Z,77.90
2019-02-14T21:27:00.413Z,80.40
2019-02-14T21:29:20.779Z,80.50
2019-02-14T21:31:41.126Z,79.60
2019-02-14T21:34:01.537Z,79.30
2019-02-14T21:36:22.948Z,79.30
2019-02-14T21:38:43.829Z,79.90
2019-02-14T21:41:04.214Z,79.30
2019-02-14T21:43:25.580Z,79.90
2019-02-14T21:45:45.938Z,79.70
2019-02-14T21:48:06.409Z,79.80
2019-02-14T21:50:26.839Z,80.30
2019-02-14T21:52:47.215Z,80.30
2019-02-14T21:55:09.699Z,79.80
2019-02-14T21:57:29.795Z,79.50
2019-02-14T21:59:50.133Z,80.30
2019-02-14T22:02:11.488Z,80.40
2019-02-14T22:04:31.810Z,80.70
2019-02-14T22:06:52.138Z,81.00
2019-02-14T22:09:12.520Z,82.10
2019-02-14T22:11:34.547Z,82.10
2019-02-14T22:13:54.924Z,81.10
2019-02-14T22:16:15.315Z,81.80
2019-02-14T22:18:35.683Z,82.50
2019-02-14T22:20:56.105Z,81.70
2019-02-14T22:23:16.449Z,81.20
2019-02-14T22:25:36.819Z,80.90
2019-02-14T22:27:57.080Z,80.60
2019-02-14T22:30:18.657Z,81.20
2019-02-14T22:32:38.945Z,81.50
2019-02-14T22:34:59.798Z,81.10
2019-02-14T22:37:20.148Z,80.90
2019-02-14T22:39:40.527Z,81.40
2019-02-14T22:42:00.883Z,81.50
2019-02-14T22:44:21.236Z,82.20
2019-02-14T22:46:41.489Z,83.40
2019-02-14T22:49:01.794Z,82.20
2019-02-14T22:51:22.127Z,82.10
2019-02-14T22:53:42.507Z,82.20
2019-02-14T22:56:02.760Z,82.40
2019-02-14T22:58:23.267Z,82.10
2019-02-14T23:00:47.434Z,82.30
2019-02-14T23:03:09.371Z,82.50
2019-02-14T23:05:29.748Z,83.10
2019-02-14T23:07:49.995Z,83.40
2019-02-14T23:10:12.173Z,83.40
2019-02-14T23:12:31.887Z,83.40
2019-02-14T23:14:52.262Z,83.40
2019-02-14T23:17:12.629Z,83.00
2019-02-14T23:19:32.887Z,83.60
2019-02-14T23:21:53.309Z,85.30
2019-02-14T23:24:13.584Z,84.40
2019-02-14T23:26:33.898Z,84.40
2019-02-14T23:28:54.301Z,84.50
2019-02-14T23:31:14.861Z,84.00
2019-02-14T23:33:35.187Z,83.00
2019-02-14T23:35:55.445Z,82.40
2019-02-14T23:38:15.704Z,83.00
2019-02-14T23:40:36.006Z,83.00
2019-02-14T23:43:04.293Z,85.00
2019-02-14T23:45:18.421Z,85.50
2019-02-14T23:47:38.757Z,85.40
2019-02-14T23:49:59.113Z,85.70
2019-02-14T23:52:19.438Z,85.30
2019-02-14T23:54:39.739Z,85.90
2019-02-14T23:56:59.990Z,85.30
2019-02-14T23:59:20.294Z,85.10
